Time;durP1;ratioP1;P1;durP2;ratioP2;P2;SDS_P1;SDS_P2;PMS_P1;PMS_P2;Temp;Humidity;BMP_temperature;BMP_pressure;BME280_temperature;BME280_humidity;BME280_pressure;Samples;Min_cycle;Max_cycle;Signal;HPM_P1;HPM_P2
2023/04/04 00:00:13;;;;;;;7.63;2.40;;;;;;;;;;4903844;29;20063;-66
2023/04/04 00:02:39;;;;;;;3.80;1.90;;;;;;;;;;4896306;29;20505;-65
2023/04/04 00:05:07;;;;;;;7.97;2.45;;;;;;;;;;4909035;29;20111;-65
2023/04/04 00:07:34;;;;;;;5.35;2.10;;;;;;;;;;4892855;29;20048;-66
2023/04/04 00:10:00;;;;;;;6.50;2.35;;;;;;;;;;4908860;29;20405;-66
2023/04/04 00:12:26;;;;;;;4.15;1.92;;;;;;;;;;4894130;29;20048;-65
2023/04/04 00:14:56;;;;;;;4.85;2.00;;;;;;;;;;4908612;29;20044;-65
2023/04/04 00:17:22;;;;;;;3.47;1.80;;;;;;;;;;4898572;29;20053;-66
2023/04/04 00:19:49;;;;;;;7.53;2.67;;;;;;;;;;4893028;29;20104;-65
2023/04/04 00:22:16;;;;;;;6.32;2.20;;;;;;;;;;4895288;29;20056;-65
2023/04/04 00:24:43;;;;;;;4.95;2.40;;;;;;;;;;4896018;29;20308;-66
2023/04/04 00:27:09;;;;;;;4.25;2.38;;;;;;;;;;4903383;29;20457;-65
2023/04/04 00:29:36;;;;;;;5.97;2.60;;;;;;;;;;4893416;29;20052;-65
2023/04/04 00:32:02;;;;;;;4.43;2.20;;;;;;;;;;4906472;29;20067;-66
2023/04/04 00:34:29;;;;;;;4.28;2.38;;;;;;;;;;4907747;29;20079;-65
2023/04/04 00:36:55;;;;;;;6.90;2.70;;;;;;;;;;4904608;29;20044;-65
2023/04/04 00:39:22;;;;;;;9.07;2.67;;;;;;;;;;4909065;29;20066;-65
2023/04/04 00:41:49;;;;;;;5.95;2.63;;;;;;;;;;4905937;29;20143;-66
2023/04/04 00:44:15;;;;;;;8.85;4.65;;;;;;;;;;4913414;29;20066;-66
2023/04/04 00:46:42;;;;;;;8.32;3.20;;;;;;;;;;4898969;29;20055;-65
2023/04/04 00:49:08;;;;;;;5.45;2.55;;;;;;;;;;4909265;29;20052;-66
2023/04/04 00:51:34;;;;;;;5.43;2.80;;;;;;;;;;4911771;29;20148;-65
2023/04/04 00:54:01;;;;;;;5.13;2.85;;;;;;;;;;4892215;29;20056;-65
2023/04/04 00:56:28;;;;;;;6.30;3.00;;;;;;;;;;4907945;29;20060;-65
2023/04/04 00:58:55;;;;;;;5.32;2.42;;;;;;;;;;4906158;29;20060;-65
2023/04/04 01:01:24;;;;;;;7.32;3.13;;;;;;;;;;4902205;29;20369;-66
2023/04/04 01:03:51;;;;;;;4.50;2.83;;;;;;;;;;4896669;29;20048;-65
2023/04/04 01:06:18;;;;;;;7.43;3.08;;;;;;;;;;4909214;29;20048;-65
2023/04/04 01:08:45;;;;;;;6.88;2.90;;;;;;;;;;4911430;29;20048;-65
2023/04/04 01:11:12;;;;;;;4.65;2.67;;;;;;;;;;4902865;29;20048;-65
2023/04/04 01:13:38;;;;;;;5.63;2.92;;;;;;;;;;4890728;29;20453;-66
2023/04/04 01:16:05;;;;;;;6.60;2.88;;;;;;;;;;4896109;29;20052;-65
2023/04/04 01:18:32;;;;;;;6.28;3.33;;;;;;;;;;4899102;29;20060;-66
2023/04/04 01:21:04;;;;;;;8.15;3.08;;;;;;;;;;4905823;29;20163;-66
2023/04/04 01:23:40;;;;;;;6.22;3.25;;;;;;;;;;4908107;29;20048;-65
2023/04/04 01:26:06;;;;;;;5.07;2.88;;;;;;;;;;4904421;29;20066;-65
2023/04/04 01:28:33;;;;;;;5.03;2.78;;;;;;;;;;4902016;29;20076;-66
2023/04/04 01:31:00;;;;;;;4.93;2.83;;;;;;;;;;4898296;29;20095;-65
2023/04/04 01:33:28;;;;;;;10.70;3.50;;;;;;;;;;4904920;29;20044;-65
2023/04/04 01:36:02;;;;;;;5.53;3.35;;;;;;;;;;4907733;29;20055;-65
2023/04/04 01:38:29;;;;;;;8.82;3.00;;;;;;;;;;4904523;29;20048;-66
2023/04/04 01:41:00;;;;;;;5.63;3.17;;;;;;;;;;4908818;29;20052;-65
2023/04/04 01:43:26;;;;;;;6.70;2.85;;;;;;;;;;4896560;29;20056;-67
2023/04/04 01:45:52;;;;;;;8.63;2.97;;;;;;;;;;4907879;29;20083;-66
2023/04/04 01:48:19;;;;;;;6.90;2.80;;;;;;;;;;4912464;29;20056;-65
2023/04/04 01:50:46;;;;;;;8.18;3.05;;;;;;;;;;4906190;29;20048;-65
2023/04/04 01:53:12;;;;;;;5.85;3.20;;;;;;;;;;4910854;29;20048;-65
2023/04/04 01:55:38;;;;;;;6.28;3.22;;;;;;;;;;4902044;29;20111;-65
2023/04/04 01:58:05;;;;;;;6.22;3.10;;;;;;;;;;4910768;29;20559;-66
2023/04/04 02:00:32;;;;;;;7.35;3.00;;;;;;;;;;4912454;29;20142;-68
2023/04/04 02:02:59;;;;;;;8.30;3.40;;;;;;;;;;4909040;29;20056;-66
2023/04/04 02:05:26;;;;;;;5.20;3.50;;;;;;;;;;4913380;29;20104;-65
2023/04/04 02:07:52;;;;;;;6.85;3.30;;;;;;;;;;4907122;29;20060;-66
2023/04/04 02:10:18;;;;;;;6.65;3.67;;;;;;;;;;4908237;29;20059;-64
2023/04/04 02:12:45;;;;;;;6.32;3.30;;;;;;;;;;4898545;29;20394;-64
2023/04/04 02:15:11;;;;;;;7.28;3.53;;;;;;;;;;4905539;29;20052;-65
2023/04/04 02:17:38;;;;;;;8.20;3.42;;;;;;;;;;4903642;29;20048;-66
2023/04/04 02:20:06;;;;;;;7.22;3.45;;;;;;;;;;4902325;29;20056;-65
2023/04/04 02:22:32;;;;;;;6.85;3.38;;;;;;;;;;4906056;29;20056;-66
2023/04/04 02:25:01;;;;;;;5.93;3.25;;;;;;;;;;4894761;29;20156;-66
2023/04/04 02:27:27;;;;;;;10.05;3.40;;;;;;;;;;4906363;29;20067;-65
2023/04/04 02:29:54;;;;;;;6.97;3.08;;;;;;;;;;4904347;29;20059;-65
2023/04/04 02:32:21;;;;;;;9.63;3.38;;;;;;;;;;4907770;29;20063;-64
2023/04/04 02:34:48;;;;;;;7.32;3.60;;;;;;;;;;4910484;29;20074;-65
2023/04/04 02:37:14;;;;;;;8.40;3.00;;;;;;;;;;4900396;29;20059;-65
2023/04/04 02:39:40;;;;;;;6.75;3.67;;;;;;;;;;4900989;29;20043;-64
2023/04/04 02:42:07;;;;;;;9.30;3.58;;;;;;;;;;4895836;29;20055;-64
2023/04/04 02:44:33;;;;;;;8.00;3.78;;;;;;;;;;4904706;29;20840;-65
2023/04/04 02:46:59;;;;;;;5.35;2.90;;;;;;;;;;4898359;29;20552;-65
2023/04/04 02:49:26;;;;;;;9.15;3.35;;;;;;;;;;4907798;29;20820;-66
2023/04/04 02:51:53;;;;;;;5.55;2.85;;;;;;;;;;4901826;29;20056;-66
2023/04/04 02:54:20;;;;;;;5.53;3.00;;;;;;;;;;4904501;29;20048;-66
2023/04/04 02:56:46;;;;;;;7.55;3.63;;;;;;;;;;4911973;29;20785;-65
2023/04/04 02:59:13;;;;;;;8.38;3.20;;;;;;;;;;4898798;29;20053;-65
2023/04/04 03:01:41;;;;;;;4.32;2.97;;;;;;;;;;4903640;29;20059;-66
2023/04/04 03:04:08;;;;;;;5.82;2.67;;;;;;;;;;4896879;29;20421;-65
2023/04/04 03:06:34;;;;;;;7.43;3.25;;;;;;;;;;4902793;29;20115;-66
2023/04/04 03:09:03;;;;;;;6.95;2.95;;;;;;;;;;4903670;29;20044;-65
2023/04/04 03:11:30;;;;;;;6.00;3.13;;;;;;;;;;4903689;29;20047;-66
2023/04/04 03:13:56;;;;;;;7.05;3.65;;;;;;;;;;4909975;29;20044;-65
2023/04/04 03:16:22;;;;;;;5.35;2.95;;;;;;;;;;4904226;29;20052;-65
2023/04/04 03:18:49;;;;;;;8.63;3.10;;;;;;;;;;4895962;29;20134;-65
2023/04/04 03:21:16;;;;;;;7.00;3.55;;;;;;;;;;4900481;29;20063;-66
2023/04/04 03:23:42;;;;;;;6.75;2.92;;;;;;;;;;4902868;29;20052;-65
2023/04/04 03:26:09;;;;;;;4.88;2.85;;;;;;;;;;4906648;29;20055;-65
2023/04/04 03:28:35;;;;;;;8.27;3.15;;;;;;;;;;4898812;29;20056;-65
2023/04/04 03:31:05;;;;;;;7.22;2.95;;;;;;;;;;4903909;29;20561;-65
2023/04/04 03:33:34;;;;;;;5.20;3.20;;;;;;;;;;4887647;29;20059;-65
2023/04/04 03:36:00;;;;;;;8.52;3.50;;;;;;;;;;4902452;29;20047;-66
2023/04/04 03:38:27;;;;;;;5.50;3.20;;;;;;;;;;4899306;29;20513;-66
2023/04/04 03:41:03;;;;;;;8.05;3.42;;;;;;;;;;4907499;29;20111;-65
2023/04/04 03:43:29;;;;;;;8.02;3.53;;;;;;;;;;4909116;29;20469;-65
2023/04/04 03:45:59;;;;;;;6.70;3.42;;;;;;;;;;4900078;29;20505;-65
2023/04/04 03:48:26;;;;;;;6.40;3.45;;;;;;;;;;4904437;29;20063;-66
2023/04/04 03:50:52;;;;;;;6.68;3.30;;;;;;;;;;4896505;29;20135;-66
2023/04/04 03:53:19;;;;;;;9.20;3.00;;;;;;;;;;4902666;29;20052;-66
2023/04/04 03:55:45;;;;;;;5.22;3.35;;;;;;;;;;4901214;29;20527;-66
2023/04/04 03:58:11;;;;;;;7.70;3.22;;;;;;;;;;4895445;29;20065;-66
2023/04/04 04:00:37;;;;;;;8.40;3.05;;;;;;;;;;4906964;29;20056;-66
2023/04/04 04:03:04;;;;;;;7.22;3.92;;;;;;;;;;4900073;29;20091;-66
2023/04/04 04:05:31;;;;;;;12.32;4.18;;;;;;;;;;4903064;29;20056;-65
2023/04/04 04:07:57;;;;;;;6.40;3.63;;;;;;;;;;4900155;29;20515;-66
2023/04/04 04:10:23;;;;;;;8.07;3.30;;;;;;;;;;4910112;29;20147;-66
2023/04/04 04:12:50;;;;;;;7.28;3.90;;;;;;;;;;4897293;29;20417;-67
2023/04/04 04:15:16;;;;;;;6.00;3.40;;;;;;;;;;4902292;29;20056;-65
2023/04/04 04:17:42;;;;;;;5.78;3.47;;;;;;;;;;4903847;29;20063;-67
2023/04/04 04:20:09;;;;;;;8.13;3.25;;;;;;;;;;4906729;29;20708;-65
2023/04/04 04:22:36;;;;;;;10.20;3.40;;;;;;;;;;4912858;29;20421;-66
2023/04/04 04:25:03;;;;;;;6.95;3.00;;;;;;;;;;4905653;29;20074;-66
2023/04/04 04:27:29;;;;;;;8.65;4.13;;;;;;;;;;4912244;29;20143;-66
2023/04/04 04:29:56;;;;;;;5.45;3.30;;;;;;;;;;4901335;29;20052;-66
2023/04/04 04:32:25;;;;;;;9.82;3.33;;;;;;;;;;4903079;29;20070;-66
2023/04/04 04:34:51;;;;;;;5.40;3.30;;;;;;;;;;4901758;29;20064;-66
2023/04/04 04:37:18;;;;;;;5.72;3.25;;;;;;;;;;4901505;29;20056;-66
2023/04/04 04:39:44;;;;;;;6.55;3.47;;;;;;;;;;4911444;29;20060;-66
2023/04/04 04:42:10;;;;;;;7.82;3.13;;;;;;;;;;4905431;29;20055;-68
2023/04/04 04:44:37;;;;;;;6.55;3.40;;;;;;;;;;4907266;29;20139;-66
2023/04/04 04:47:03;;;;;;;5.15;3.20;;;;;;;;;;4896788;29;20060;-66
2023/04/04 04:49:31;;;;;;;4.72;2.92;;;;;;;;;;4911225;29;20058;-66
2023/04/04 04:51:57;;;;;;;7.15;3.80;;;;;;;;;;4914643;29;20127;-66
2023/04/04 04:54:24;;;;;;;8.40;3.55;;;;;;;;;;4904752;29;20055;-65
2023/04/04 04:56:50;;;;;;;7.50;3.50;;;;;;;;;;4909589;29;20055;-65
2023/04/04 04:59:16;;;;;;;6.60;3.40;;;;;;;;;;4904660;29;20520;-65
2023/04/04 05:01:43;;;;;;;8.18;3.60;;;;;;;;;;4910124;29;20134;-66
2023/04/04 05:04:09;;;;;;;6.30;3.40;;;;;;;;;;4895924;29;20067;-66
2023/04/04 05:06:37;;;;;;;7.03;3.17;;;;;;;;;;4923750;29;20556;-66
2023/04/04 05:09:03;;;;;;;7.63;3.45;;;;;;;;;;4900873;29;20060;-66
2023/04/04 05:11:30;;;;;;;10.82;4.07;;;;;;;;;;4892962;29;20066;-66
2023/04/04 05:13:57;;;;;;;5.25;2.85;;;;;;;;;;4911616;29;20135;-66
2023/04/04 05:16:24;;;;;;;5.30;3.00;;;;;;;;;;4903378;29;20048;-66
2023/04/04 05:18:50;;;;;;;7.15;3.17;;;;;;;;;;4901921;29;20179;-66
2023/04/04 05:21:16;;;;;;;7.53;2.95;;;;;;;;;;4895158;29;20107;-66
2023/04/04 05:23:44;;;;;;;4.32;2.92;;;;;;;;;;4896661;29;20069;-65
2023/04/04 05:26:10;;;;;;;6.68;3.60;;;;;;;;;;4902383;29;20062;-65
2023/04/04 05:28:36;;;;;;;7.35;3.67;;;;;;;;;;4899676;29;20756;-66
2023/04/04 05:31:03;;;;;;;8.68;3.75;;;;;;;;;;4909522;29;20532;-67
2023/04/04 05:33:29;;;;;;;6.28;3.25;;;;;;;;;;4900451;29;20052;-66
2023/04/04 05:35:55;;;;;;;5.30;2.97;;;;;;;;;;4905140;29;20269;-65
2023/04/04 05:38:22;;;;;;;6.07;3.80;;;;;;;;;;4897274;29;20505;-65
2023/04/04 05:40:48;;;;;;;8.73;3.80;;;;;;;;;;4905947;29;20052;-66
2023/04/04 05:43:14;;;;;;;6.95;4.25;;;;;;;;;;4906453;29;20063;-65
2023/04/04 05:45:40;;;;;;;9.27;4.68;;;;;;;;;;4897347;29;20064;-65
2023/04/04 05:48:07;;;;;;;9.00;4.15;;;;;;;;;;4911278;29;20068;-66
2023/04/04 05:50:34;;;;;;;12.60;6.32;;;;;;;;;;4899459;29;20056;-66
2023/04/04 05:53:01;;;;;;;10.63;6.20;;;;;;;;;;4905442;29;20064;-66
2023/04/04 05:55:28;;;;;;;8.82;4.97;;;;;;;;;;4905357;29;20069;-67
2023/04/04 05:57:55;;;;;;;8.95;4.18;;;;;;;;;;4905839;29;20055;-67
2023/04/04 06:00:22;;;;;;;7.28;3.53;;;;;;;;;;4910978;29;20048;-65
2023/04/04 06:02:48;;;;;;;5.10;3.10;;;;;;;;;;4904210;29;20056;-65
2023/04/04 06:05:15;;;;;;;7.65;3.72;;;;;;;;;;4906085;29;20044;-65
2023/04/04 06:07:41;;;;;;;6.30;3.35;;;;;;;;;;4900442;29;20102;-66
2023/04/04 06:10:08;;;;;;;6.93;3.13;;;;;;;;;;4903057;29;20047;-65
2023/04/04 06:12:34;;;;;;;5.60;3.28;;;;;;;;;;4895589;29;20056;-65
2023/04/04 06:15:00;;;;;;;5.60;3.30;;;;;;;;;;4904058;29;20055;-66
2023/04/04 06:17:27;;;;;;;6.22;3.00;;;;;;;;;;4910280;29;20056;-65
2023/04/04 06:19:54;;;;;;;9.73;3.03;;;;;;;;;;4899927;29;20052;-65
2023/04/04 06:22:20;;;;;;;6.65;2.90;;;;;;;;;;4904645;29;20056;-66
2023/04/04 06:24:46;;;;;;;6.15;3.25;;;;;;;;;;4898755;29;20144;-66
2023/04/04 06:27:13;;;;;;;8.07;2.83;;;;;;;;;;4905542;29;20424;-66
2023/04/04 06:29:40;;;;;;;5.93;3.05;;;;;;;;;;4892798;29;20505;-65
2023/04/04 06:32:06;;;;;;;8.18;3.22;;;;;;;;;;4902855;29;20078;-65
2023/04/04 06:34:33;;;;;;;8.35;3.10;;;;;;;;;;4904642;29;20052;-66
2023/04/04 06:36:59;;;;;;;5.55;2.75;;;;;;;;;;4903975;29;20086;-65
2023/04/04 06:39:26;;;;;;;7.00;3.35;;;;;;;;;;4908226;29;20413;-65
2023/04/04 06:41:52;;;;;;;5.53;2.70;;;;;;;;;;4897108;29;20090;-65
2023/04/04 06:44:18;;;;;;;10.05;4.07;;;;;;;;;;4894243;29;20048;-66
2023/04/04 06:46:45;;;;;;;8.15;4.00;;;;;;;;;;4899300;29;20446;-65
2023/04/04 06:49:12;;;;;;;11.43;4.40;;;;;;;;;;4910149;29;20100;-65
2023/04/04 06:51:39;;;;;;;8.60;3.83;;;;;;;;;;4897694;29;20104;-65
2023/04/04 06:54:06;;;;;;;7.45;3.47;;;;;;;;;;4899557;29;20062;-65
2023/04/04 06:56:32;;;;;;;7.35;3.28;;;;;;;;;;4896301;29;20520;-65
2023/04/04 06:58:58;;;;;;;9.00;3.22;;;;;;;;;;4901792;29;20111;-65
2023/04/04 07:01:25;;;;;;;8.23;3.83;;;;;;;;;;4903397;29;20048;-64
2023/04/04 07:03:53;;;;;;;5.18;2.97;;;;;;;;;;4903068;29;20137;-65
2023/04/04 07:06:23;;;;;;;8.85;3.45;;;;;;;;;;4906802;29;20063;-65
2023/04/04 07:08:51;;;;;;;11.35;3.97;;;;;;;;;;4905607;29;20290;-65
2023/04/04 07:11:17;;;;;;;7.53;3.45;;;;;;;;;;4894813;29;20167;-65
2023/04/04 07:13:43;;;;;;;7.70;3.15;;;;;;;;;;4905817;29;20056;-65
2023/04/04 07:16:10;;;;;;;6.03;2.42;;;;;;;;;;4896562;29;20052;-65
2023/04/04 07:18:37;;;;;;;6.85;3.00;;;;;;;;;;4892722;29;20185;-66
2023/04/04 07:21:03;;;;;;;5.25;2.65;;;;;;;;;;4890083;29;20457;-66
2023/04/04 07:23:30;;;;;;;6.25;2.78;;;;;;;;;;4901570;29;20075;-64
2023/04/04 07:25:56;;;;;;;6.53;3.40;;;;;;;;;;4899079;29;20108;-65
2023/04/04 07:28:22;;;;;;;7.00;2.83;;;;;;;;;;4904140;29;20048;-66
2023/04/04 07:30:48;;;;;;;7.07;2.95;;;;;;;;;;4908406;29;20099;-65
2023/04/04 07:33:15;;;;;;;5.68;2.67;;;;;;;;;;4897340;29;20052;-64
2023/04/04 07:35:41;;;;;;;5.78;2.78;;;;;;;;;;4906440;29;20105;-65
2023/04/04 07:38:09;;;;;;;7.72;3.53;;;;;;;;;;4872920;29;20060;-67
2023/04/04 07:40:35;;;;;;;7.57;3.10;;;;;;;;;;4896447;29;20048;-66
2023/04/04 07:43:02;;;;;;;7.60;3.50;;;;;;;;;;4907081;29;20052;-64
2023/04/04 07:45:28;;;;;;;6.82;2.65;;;;;;;;;;4896794;29;20048;-67
2023/04/04 07:47:55;;;;;;;7.97;3.42;;;;;;;;;;4906848;29;20134;-66
2023/04/04 07:50:21;;;;;;;6.78;3.10;;;;;;;;;;4895812;29;20056;-68
2023/04/04 07:52:50;;;;;;;8.27;3.03;;;;;;;;;;4901861;29;20055;-66
2023/04/04 07:55:17;;;;;;;6.75;3.42;;;;;;;;;;4901075;29;20059;-66
2023/04/04 07:57:44;;;;;;;5.65;2.85;;;;;;;;;;4906849;29;20125;-66
2023/04/04 08:00:10;;;;;;;6.47;3.25;;;;;;;;;;4907949;29;20055;-64
2023/04/04 08:02:37;;;;;;;4.50;2.70;;;;;;;;;;4900058;29;20122;-67
2023/04/04 08:05:04;;;;;;;6.90;2.85;;;;;;;;;;4895327;29;20056;-65
2023/04/04 08:07:30;;;;;;;6.00;2.95;;;;;;;;;;4898018;29;20052;-65
2023/04/04 08:09:57;;;;;;;5.50;2.55;;;;;;;;;;4899930;29;20052;-66
2023/04/04 08:12:23;;;;;;;6.38;3.10;;;;;;;;;;4904300;29;20052;-65
2023/04/04 08:14:50;;;;;;;5.85;2.90;;;;;;;;;;4906958;29;20123;-65
2023/04/04 08:17:17;;;;;;;5.15;2.97;;;;;;;;;;4908234;29;20138;-66
2023/04/04 08:19:44;;;;;;;6.30;2.70;;;;;;;;;;4882889;29;20071;-65
2023/04/04 08:22:11;;;;;;;6.30;2.90;;;;;;;;;;4887989;29;20052;-65
2023/04/04 08:24:37;;;;;;;5.70;2.92;;;;;;;;;;4892256;29;20116;-66
2023/04/04 08:27:04;;;;;;;6.85;3.15;;;;;;;;;;4891049;29;20168;-66
2023/04/04 08:29:31;;;;;;;7.32;2.85;;;;;;;;;;4904560;29;20056;-66
2023/04/04 08:31:59;;;;;;;5.18;2.75;;;;;;;;;;4899984;29;20055;-66
2023/04/04 08:34:25;;;;;;;6.30;2.58;;;;;;;;;;4902437;29;20052;-64
2023/04/04 08:36:52;;;;;;;5.18;2.67;;;;;;;;;;4891396;29;20052;-67
2023/04/04 08:39:18;;;;;;;6.63;3.17;;;;;;;;;;4905756;29;20611;-65
2023/04/04 08:41:45;;;;;;;6.35;2.80;;;;;;;;;;4899882;28;20615;-65
2023/04/04 08:44:16;;;;;;;6.60;2.50;;;;;;;;;;4903288;29;20052;-68
2023/04/04 08:46:44;;;;;;;7.28;2.88;;;;;;;;;;4894158;29;20055;-66
2023/04/04 08:49:12;;;;;;;5.90;3.25;;;;;;;;;;4908003;29;20052;-66
2023/04/04 08:51:39;;;;;;;6.43;2.60;;;;;;;;;;4909578;29;20059;-67
2023/04/04 08:54:07;;;;;;;6.20;2.75;;;;;;;;;;4903794;29;20052;-67
2023/04/04 08:56:34;;;;;;;4.53;2.20;;;;;;;;;;4910979;29;20523;-66
2023/04/04 08:59:01;;;;;;;4.70;2.90;;;;;;;;;;4900418;29;20052;-65
2023/04/04 09:01:28;;;;;;;6.45;2.47;;;;;;;;;;4906286;29;20053;-66
2023/04/04 09:03:59;;;;;;;5.60;3.63;;;;;;;;;;4903413;29;20048;-66
2023/04/04 09:06:26;;;;;;;4.28;2.78;;;;;;;;;;4907404;29;20048;-68
2023/04/04 09:08:53;;;;;;;6.68;2.45;;;;;;;;;;4904424;29;20052;-66
2023/04/04 09:11:21;;;;;;;6.00;2.78;;;;;;;;;;4900345;29;20048;-66
2023/04/04 09:13:49;;;;;;;6.15;2.60;;;;;;;;;;4902620;29;20052;-66
2023/04/04 09:16:16;;;;;;;5.53;2.25;;;;;;;;;;4892402;29;20045;-66
2023/04/04 09:18:42;;;;;;;5.75;2.60;;;;;;;;;;4907110;29;20160;-66
2023/04/04 09:23:44;;;;;;;5.65;2.58;;;;;;;;;;5626162;23;20063;-66
2023/04/04 09:26:15;;;;;;;5.22;2.20;;;;;;;;;;4885016;29;20059;-68
2023/04/04 09:28:42;;;;;;;5.97;2.58;;;;;;;;;;4896122;29;20091;-67
2023/04/04 09:31:10;;;;;;;2.97;1.95;;;;;;;;;;4889847;29;20056;-65
2023/04/04 09:33:37;;;;;;;3.15;1.75;;;;;;;;;;4884985;29;20550;-67
2023/04/04 09:36:10;;;;;;;4.43;2.25;;;;;;;;;;4891876;29;20135;-67
2023/04/04 09:38:38;;;;;;;5.38;1.77;;;;;;;;;;4881203;29;20568;-67
2023/04/04 09:41:05;;;;;;;;;;;;;;;;;;4889389;29;20531;-67
2023/04/04 09:43:31;;;;;;;5.95;2.00;;;;;;;;;;4885787;29;20352;-67
2023/04/04 09:46:01;;;;;;;6.43;2.22;;;;;;;;;;4875750;29;20117;-67
2023/04/04 09:48:32;;;;;;;4.28;1.75;;;;;;;;;;4885468;29;20150;-67
2023/04/04 09:50:59;;;;;;;6.45;1.60;;;;;;;;;;4883826;29;20040;-67
2023/04/04 09:53:25;;;;;;;5.28;1.70;;;;;;;;;;4893531;29;20058;-67
2023/04/04 09:55:53;;;;;;;4.57;1.90;;;;;;;;;;4879484;29;20048;-67
2023/04/04 09:58:30;;;;;;;5.20;2.10;;;;;;;;;;4884377;29;20116;-67
2023/04/04 10:01:00;;;;;;;3.45;2.20;;;;;;;;;;4884505;29;20135;-66
2023/04/04 10:03:28;;;;;;;5.63;2.60;;;;;;;;;;4888472;29;20151;-66
2023/04/04 10:05:56;;;;;;;5.28;2.65;;;;;;;;;;4887216;29;20052;-68
2023/04/04 10:08:22;;;;;;;;;;;;;;;;;;4883209;29;20056;-67
2023/04/04 10:10:50;;;;;;;5.82;2.20;;;;;;;;;;4886836;29;19926;-67
2023/04/04 10:13:39;;;;;;;7.45;2.42;;;;;;;;;;4880022;29;20225;-67
2023/04/04 10:16:06;;;;;;;6.85;2.55;;;;;;;;;;4889665;29;20554;-67
2023/04/04 10:18:33;;;;;;;4.78;2.40;;;;;;;;;;4882090;29;20059;-67
2023/04/04 10:21:01;;;;;;;8.45;2.42;;;;;;;;;;4888229;29;20140;-66
2023/04/04 10:23:41;;;;;;;5.55;2.30;;;;;;;;;;4879312;29;20128;-68
2023/04/04 10:26:07;;;;;;;8.85;2.70;;;;;;;;;;4883289;29;20056;-68
2023/04/04 10:28:34;;;;;;;4.97;2.28;;;;;;;;;;4889989;29;20056;-67
2023/04/04 10:31:19;;;;;;;6.90;2.25;;;;;;;;;;4883498;29;20104;-66
2023/04/04 10:34:08;;;;;;;5.72;2.80;;;;;;;;;;4894228;29;20048;-67
2023/04/04 10:36:37;;;;;;;4.63;3.03;;;;;;;;;;4876575;29;20048;-66
2023/04/04 10:39:03;;;;;;;;;;;;;;;;;;4909308;29;20576;-66
2023/04/04 10:41:31;;;;;;;7.45;2.13;;;;;;;;;;4884512;29;20398;-66
2023/04/04 10:43:59;;;;;;;4.72;2.25;;;;;;;;;;4889461;29;20052;-65
2023/04/04 10:46:29;;;;;;;;;;;;;;;;;;4886301;29;20044;-67
2023/04/04 10:48:59;;;;;;;5.07;2.42;;;;;;;;;;4884953;29;19927;-66
2023/04/04 10:51:25;;;;;;;5.68;2.28;;;;;;;;;;4884908;29;20637;-66
2023/04/04 10:53:52;;;;;;;4.40;2.28;;;;;;;;;;4881834;29;20421;-66
2023/04/04 10:56:20;;;;;;;5.15;2.47;;;;;;;;;;4888677;29;20063;-66
2023/04/04 10:58:47;;;;;;;6.10;2.53;;;;;;;;;;4883398;29;20065;-67
2023/04/04 11:01:19;;;;;;;5.07;2.37;;;;;;;;;;4867518;29;20362;-67
2023/04/04 11:04:05;;;;;;;5.68;2.53;;;;;;;;;;4875688;29;20652;-67
2023/04/04 11:06:50;;;;;;;7.55;2.67;;;;;;;;;;4884171;29;20791;-64
2023/04/04 11:09:35;;;;;;;7.20;2.70;;;;;;;;;;4881219;29;20592;-69
2023/04/04 11:12:09;;;;;;;5.20;2.75;;;;;;;;;;4888886;29;20071;-65
2023/04/04 11:14:36;;;;;;;5.45;2.53;;;;;;;;;;4888584;29;20348;-65
2023/04/04 11:17:04;;;;;;;5.25;2.42;;;;;;;;;;4878136;29;20293;-66
2023/04/04 11:19:32;;;;;;;8.65;2.72;;;;;;;;;;4885092;29;20052;-68
2023/04/04 11:21:58;;;;;;;4.88;2.45;;;;;;;;;;4882326;29;20144;-67
2023/04/04 11:24:27;;;;;;;7.05;2.67;;;;;;;;;;4887821;29;20052;-68
2023/04/04 11:26:53;;;;;;;3.75;2.10;;;;;;;;;;4882033;29;20055;-69
2023/04/04 11:29:46;;;;;;;6.78;3.03;;;;;;;;;;4889248;29;20140;-70
2023/04/04 11:32:34;;;;;;;7.32;2.63;;;;;;;;;;4873743;29;20112;-68
2023/04/04 11:35:03;;;;;;;4.57;2.67;;;;;;;;;;4889027;29;20056;-68
2023/04/04 11:37:30;;;;;;;5.63;2.47;;;;;;;;;;4884267;29;20056;-68
2023/04/04 11:40:07;;;;;;;5.03;2.38;;;;;;;;;;4879166;29;20104;-68
2023/04/04 11:42:36;;;;;;;6.93;3.05;;;;;;;;;;4884242;29;20764;-68
2023/04/04 11:45:04;;;;;;;6.05;2.70;;;;;;;;;;4878005;29;20049;-67
2023/04/04 11:47:30;;;;;;;5.10;2.33;;;;;;;;;;4883501;29;20064;-67
2023/04/04 11:49:59;;;;;;;6.82;2.90;;;;;;;;;;4883199;29;20586;-68
2023/04/04 11:52:31;;;;;;;6.68;2.88;;;;;;;;;;4888474;29;20096;-68
2023/04/04 11:54:58;;;;;;;6.70;3.00;;;;;;;;;;4882654;29;20413;-68
2023/04/04 11:57:24;;;;;;;7.53;2.60;;;;;;;;;;4887619;29;20100;-68
2023/04/04 11:59:51;;;;;;;5.70;2.90;;;;;;;;;;4880833;29;20053;-68
2023/04/04 12:02:18;;;;;;;7.03;3.05;;;;;;;;;;4879901;29;20045;-68
2023/04/04 12:04:46;;;;;;;4.95;2.78;;;;;;;;;;4888964;29;20482;-68
2023/04/04 12:07:14;;;;;;;7.00;3.17;;;;;;;;;;4873968;29;20059;-68
2023/04/04 12:09:41;;;;;;;5.65;2.67;;;;;;;;;;4888038;29;20705;-68
2023/04/04 12:12:13;;;;;;;5.97;2.58;;;;;;;;;;4878377;29;20053;-69
2023/04/04 12:14:40;;;;;;;6.07;2.72;;;;;;;;;;4897427;29;20052;-68
2023/04/04 12:17:06;;;;;;;7.95;3.10;;;;;;;;;;4888681;29;20052;-69
2023/04/04 12:19:39;;;;;;;6.93;3.00;;;;;;;;;;4882127;29;20045;-68
2023/04/04 12:22:07;;;;;;;8.85;3.10;;;;;;;;;;4890632;29;20061;-68
2023/04/04 12:24:34;;;;;;;5.47;2.38;;;;;;;;;;4883001;29;20084;-69
2023/04/04 12:27:02;;;;;;;8.48;2.83;;;;;;;;;;4887320;29;20691;-69
2023/04/04 12:29:34;;;;;;;6.43;3.38;;;;;;;;;;4882429;29;20078;-68
2023/04/04 12:32:01;;;;;;;4.55;2.58;;;;;;;;;;4905095;29;20049;-69
2023/04/04 12:34:29;;;;;;;6.47;2.70;;;;;;;;;;4890816;29;20128;-69
2023/04/04 12:37:01;;;;;;;5.47;2.60;;;;;;;;;;4884459;29;20425;-69
2023/04/04 12:39:28;;;;;;;4.57;2.60;;;;;;;;;;4889693;29;20169;-69
2023/04/04 12:41:57;;;;;;;4.80;2.35;;;;;;;;;;4878461;29;20040;-69
2023/04/04 12:44:34;;;;;;;6.35;2.70;;;;;;;;;;4891158;29;20434;-69
2023/04/04 12:47:03;;;;;;;7.00;3.05;;;;;;;;;;4885406;29;20044;-68
2023/04/04 12:49:29;;;;;;;;;;;;;;;;;;4895022;29;20441;-68
2023/04/04 12:51:59;;;;;;;7.07;2.95;;;;;;;;;;4905132;29;19927;-68
2023/04/04 12:54:27;;;;;;;4.60;2.80;;;;;;;;;;4882654;29;20143;-69
2023/04/04 12:56:54;;;;;;;6.37;3.20;;;;;;;;;;4886792;29;20572;-68
2023/04/04 12:59:22;;;;;;;6.03;3.10;;;;;;;;;;4885769;29;20060;-69
2023/04/04 13:01:48;;;;;;;6.07;2.63;;;;;;;;;;4888996;29;20116;-69
2023/04/04 13:04:16;;;;;;;5.53;2.88;;;;;;;;;;4885005;29;20095;-69
2023/04/04 13:06:49;;;;;;;6.40;2.75;;;;;;;;;;4890892;29;20072;-68
2023/04/04 13:09:17;;;;;;;7.45;2.60;;;;;;;;;;4886367;29;20061;-70
2023/04/04 13:12:00;;;;;;;7.70;2.95;;;;;;;;;;4881129;29;20064;-68
2023/04/04 13:14:28;;;;;;;5.47;3.00;;;;;;;;;;4889953;29;20048;-68
2023/04/04 13:17:02;;;;;;;7.38;2.58;;;;;;;;;;4884845;29;20069;-68
2023/04/04 13:19:28;;;;;;;8.32;2.85;;;;;;;;;;4891484;29;20080;-69
2023/04/04 13:21:54;;;;;;;5.47;2.72;;;;;;;;;;4882234;29;20539;-69
2023/04/04 13:24:21;;;;;;;6.93;2.97;;;;;;;;;;4886386;29;20060;-67
2023/04/04 13:26:47;;;;;;;7.60;2.80;;;;;;;;;;4883058;29;20060;-68
2023/04/04 13:29:13;;;;;;;5.07;2.55;;;;;;;;;;4906177;29;20060;-68
2023/04/04 13:31:40;;;;;;;5.75;3.00;;;;;;;;;;4888913;29;20052;-67
2023/04/04 13:34:07;;;;;;;4.82;2.58;;;;;;;;;;4884974;29;20063;-68
2023/04/04 13:36:33;;;;;;;6.38;2.90;;;;;;;;;;4898560;29;20052;-68
2023/04/04 13:38:59;;;;;;;6.20;2.70;;;;;;;;;;4878250;29;20056;-68
2023/04/04 13:41:25;;;;;;;6.25;3.03;;;;;;;;;;4890728;29;20494;-67
2023/04/04 13:43:52;;;;;;;4.53;2.70;;;;;;;;;;4885086;29;20061;-67
2023/04/04 13:46:18;;;;;;;7.93;3.40;;;;;;;;;;4889582;29;20062;-67
2023/04/04 13:48:45;;;;;;;5.95;2.70;;;;;;;;;;4891311;29;20139;-68
2023/04/04 13:51:11;;;;;;;5.93;3.10;;;;;;;;;;4877868;29;20056;-67
2023/04/04 13:53:37;;;;;;;6.60;2.90;;;;;;;;;;4889966;29;20049;-67
2023/04/04 13:56:03;;;;;;;6.82;3.08;;;;;;;;;;4884794;29;20056;-67
2023/04/04 13:58:33;;;;;;;4.95;2.58;;;;;;;;;;4891699;29;20052;-67
2023/04/04 14:01:01;;;;;;;6.07;2.65;;;;;;;;;;4883136;29;20061;-67
2023/04/04 14:03:28;;;;;;;6.13;2.88;;;;;;;;;;4885931;29;20104;-66
2023/04/04 14:05:55;;;;;;;7.88;3.08;;;;;;;;;;4886454;29;20412;-67
2023/04/04 14:08:21;;;;;;;4.47;2.63;;;;;;;;;;4898483;29;20350;-66
2023/04/04 14:10:47;;;;;;;5.32;3.00;;;;;;;;;;4890506;29;20052;-67
2023/04/04 14:13:15;;;;;;;6.95;3.42;;;;;;;;;;4883246;29;20052;-67
2023/04/04 14:15:41;;;;;;;4.80;2.67;;;;;;;;;;4890255;29;20044;-67
2023/04/04 14:18:08;;;;;;;5.57;2.92;;;;;;;;;;4877310;29;20114;-68
2023/04/04 14:20:36;;;;;;;12.23;3.40;;;;;;;;;;4887986;29;20147;-67
2023/04/04 14:23:02;;;;;;;6.33;3.30;;;;;;;;;;4887834;29;20045;-67
2023/04/04 14:25:28;;;;;;;3.78;2.42;;;;;;;;;;4882280;29;20076;-67
2023/04/04 14:27:55;;;;;;;5.95;2.90;;;;;;;;;;4890210;29;20059;-67
2023/04/04 14:30:21;;;;;;;5.97;2.80;;;;;;;;;;4878978;29;20061;-67
2023/04/04 14:32:49;;;;;;;5.50;2.97;;;;;;;;;;4884636;29;20052;-68
2023/04/04 14:35:16;;;;;;;6.72;2.90;;;;;;;;;;4885755;29;20060;-67
2023/04/04 14:37:42;;;;;;;9.20;2.88;;;;;;;;;;4887389;29;20056;-67
2023/04/04 14:40:09;;;;;;;5.15;2.50;;;;;;;;;;4903601;29;20060;-67
2023/04/04 14:42:35;;;;;;;4.88;2.70;;;;;;;;;;4883175;29;20545;-67
2023/04/04 14:45:06;;;;;;;4.80;2.55;;;;;;;;;;4884780;29;20112;-67
2023/04/04 14:47:33;;;;;;;6.22;2.95;;;;;;;;;;4877163;29;20049;-67